sensor_id;sensor_type;location;lat;lon;timestamp;P1;durP1;ratioP1;P2;durP2;ratioP2
562;SDS011;266;49.514;8.294;2023-06-22T00:00:59;4.83;;;4.43;;
562;SDS011;266;49.514;8.294;2023-06-22T00:03:27;5.03;;;4.57;;
562;SDS011;266;49.514;8.294;2023-06-22T00:05:55;4.90;;;4.50;;
562;SDS011;266;49.514;8.294;2023-06-22T00:08:23;4.60;;;4.20;;
562;SDS011;266;49.514;8.294;2023-06-22T00:10:51;5.30;;;4.80;;
562;SDS011;266;49.514;8.294;2023-06-22T00:13:19;4.13;;;3.83;;
562;SDS011;266;49.514;8.294;2023-06-22T00:15:50;4.87;;;4.40;;
562;SDS011;266;49.514;8.294;2023-06-22T00:18:17;4.73;;;4.33;;
562;SDS011;266;49.514;8.294;2023-06-22T00:20:46;3.93;;;3.60;;
562;SDS011;266;49.514;8.294;2023-06-22T00:23:14;5.03;;;4.30;;
562;SDS011;266;49.514;8.294;2023-06-22T00:25:44;4.80;;;4.40;;
562;SDS011;266;49.514;8.294;2023-06-22T00:28:12;4.83;;;4.43;;
562;SDS011;266;49.514;8.294;2023-06-22T00:30:39;5.10;;;4.67;;
562;SDS011;266;49.514;8.294;2023-06-22T00:33:09;5.63;;;4.57;;
562;SDS011;266;49.514;8.294;2023-06-22T00:35:37;5.10;;;3.60;;
562;SDS011;266;49.514;8.294;2023-06-22T00:38:07;4.60;;;4.30;;
562;SDS011;266;49.514;8.294;2023-06-22T00:40:35;3.53;;;3.23;;
562;SDS011;266;49.514;8.294;2023-06-22T00:43:04;4.70;;;4.30;;
562;SDS011;266;49.514;8.294;2023-06-22T00:45:32;4.67;;;4.10;;
562;SDS011;266;49.514;8.294;2023-06-22T00:48:01;7.83;;;4.43;;
562;SDS011;266;49.514;8.294;2023-06-22T00:50:33;6.60;;;5.27;;
562;SDS011;266;49.514;8.294;2023-06-22T00:53:03;5.37;;;4.83;;
562;SDS011;266;49.514;8.294;2023-06-22T00:55:35;5.93;;;5.07;;
562;SDS011;266;49.514;8.294;2023-06-22T00:58:05;6.50;;;4.50;;
562;SDS011;266;49.514;8.294;2023-06-22T01:00:37;11.23;;;5.60;;
562;SDS011;266;49.514;8.294;2023-06-22T01:03:05;5.90;;;5.27;;
562;SDS011;266;49.514;8.294;2023-06-22T01:05:37;7.63;;;6.30;;
562;SDS011;266;49.514;8.294;2023-06-22T01:08:08;4.67;;;4.27;;
562;SDS011;266;49.514;8.294;2023-06-22T01:10:44;8.03;;;5.40;;
562;SDS011;266;49.514;8.294;2023-06-22T01:13:21;6.17;;;5.57;;
562;SDS011;266;49.514;8.294;2023-06-22T01:15:57;4.70;;;4.30;;
562;SDS011;266;49.514;8.294;2023-06-22T01:18:29;5.27;;;4.77;;
562;SDS011;266;49.514;8.294;2023-06-22T01:21:00;5.77;;;4.87;;
562;SDS011;266;49.514;8.294;2023-06-22T01:23:37;5.50;;;5.00;;
562;SDS011;266;49.514;8.294;2023-06-22T01:26:19;6.60;;;4.93;;
562;SDS011;266;49.514;8.294;2023-06-22T01:28:55;5.63;;;5.13;;
562;SDS011;266;49.514;8.294;2023-06-22T01:31:26;5.77;;;5.27;;
562;SDS011;266;49.514;8.294;2023-06-22T01:33:57;6.57;;;5.80;;
562;SDS011;266;49.514;8.294;2023-06-22T01:36:27;6.10;;;5.60;;
562;SDS011;266;49.514;8.294;2023-06-22T01:38:56;4.50;;;4.10;;
562;SDS011;266;49.514;8.294;2023-06-22T01:41:25;5.40;;;4.90;;
562;SDS011;266;49.514;8.294;2023-06-22T01:43:57;6.10;;;5.30;;
562;SDS011;266;49.514;8.294;2023-06-22T01:46:26;6.23;;;5.63;;
562;SDS011;266;49.514;8.294;2023-06-22T01:48:54;6.27;;;5.67;;
562;SDS011;266;49.514;8.294;2023-06-22T01:51:23;7.20;;;5.50;;
562;SDS011;266;49.514;8.294;2023-06-22T01:53:51;6.40;;;5.27;;
562;SDS011;266;49.514;8.294;2023-06-22T01:56:19;6.60;;;5.90;;
562;SDS011;266;49.514;8.294;2023-06-22T01:58:50;5.57;;;5.17;;
562;SDS011;266;49.514;8.294;2023-06-22T02:01:31;5.90;;;5.40;;
562;SDS011;266;49.514;8.294;2023-06-22T02:04:05;6.33;;;5.63;;
562;SDS011;266;49.514;8.294;2023-06-22T02:06:38;7.00;;;6.20;;
562;SDS011;266;49.514;8.294;2023-06-22T02:09:09;5.47;;;4.97;;
562;SDS011;266;49.514;8.294;2023-06-22T02:11:40;6.37;;;5.77;;
562;SDS011;266;49.514;8.294;2023-06-22T02:14:09;6.73;;;6.13;;
562;SDS011;266;49.514;8.294;2023-06-22T02:16:40;6.13;;;5.40;;
562;SDS011;266;49.514;8.294;2023-06-22T02:19:11;5.40;;;4.90;;
562;SDS011;266;49.514;8.294;2023-06-22T02:21:39;6.20;;;5.03;;
562;SDS011;266;49.514;8.294;2023-06-22T02:24:07;5.63;;;5.13;;
562;SDS011;266;49.514;8.294;2023-06-22T02:26:34;5.67;;;5.13;;
562;SDS011;266;49.514;8.294;2023-06-22T02:29:04;5.83;;;5.23;;
562;SDS011;266;49.514;8.294;2023-06-22T02:31:32;5.63;;;5.10;;
562;SDS011;266;49.514;8.294;2023-06-22T02:34:01;5.80;;;5.30;;
562;SDS011;266;49.514;8.294;2023-06-22T02:36:29;7.27;;;5.40;;
562;SDS011;266;49.514;8.294;2023-06-22T02:38:59;5.27;;;4.77;;
562;SDS011;266;49.514;8.294;2023-06-22T02:41:29;5.77;;;5.27;;
562;SDS011;266;49.514;8.294;2023-06-22T02:43:57;5.83;;;5.33;;
562;SDS011;266;49.514;8.294;2023-06-22T02:46:25;6.37;;;5.77;;
562;SDS011;266;49.514;8.294;2023-06-22T02:48:53;5.27;;;4.77;;
562;SDS011;266;49.514;8.294;2023-06-22T02:51:23;5.83;;;5.20;;
562;SDS011;266;49.514;8.294;2023-06-22T02:53:51;7.23;;;6.57;;
562;SDS011;266;49.514;8.294;2023-06-22T02:56:23;6.83;;;4.90;;
562;SDS011;266;49.514;8.294;2023-06-22T02:58:51;6.60;;;5.70;;
562;SDS011;266;49.514;8.294;2023-06-22T03:01:19;5.90;;;5.30;;
562;SDS011;266;49.514;8.294;2023-06-22T03:03:50;5.50;;;5.00;;
562;SDS011;266;49.514;8.294;2023-06-22T03:06:18;6.60;;;6.00;;
562;SDS011;266;49.514;8.294;2023-06-22T03:08:51;6.67;;;5.97;;
562;SDS011;266;49.514;8.294;2023-06-22T03:11:19;6.73;;;6.13;;
562;SDS011;266;49.514;8.294;2023-06-22T03:13:47;5.67;;;5.17;;
562;SDS011;266;49.514;8.294;2023-06-22T03:16:18;8.17;;;6.77;;
562;SDS011;266;49.514;8.294;2023-06-22T03:18:46;8.73;;;6.00;;
562;SDS011;266;49.514;8.294;2023-06-22T03:21:14;7.00;;;6.30;;
562;SDS011;266;49.514;8.294;2023-06-22T03:23:43;6.47;;;5.73;;
562;SDS011;266;49.514;8.294;2023-06-22T03:26:12;6.73;;;6.13;;
562;SDS011;266;49.514;8.294;2023-06-22T03:28:40;5.83;;;5.37;;
562;SDS011;266;49.514;8.294;2023-06-22T03:31:08;7.30;;;6.17;;
562;SDS011;266;49.514;8.294;2023-06-22T03:33:36;6.97;;;6.33;;
562;SDS011;266;49.514;8.294;2023-06-22T03:36:04;7.43;;;6.73;;
562;SDS011;266;49.514;8.294;2023-06-22T03:38:32;6.90;;;6.30;;
562;SDS011;266;49.514;8.294;2023-06-22T03:41:00;11.93;;;6.13;;
562;SDS011;266;49.514;8.294;2023-06-22T03:43:29;10.30;;;6.60;;
562;SDS011;266;49.514;8.294;2023-06-22T03:45:57;8.53;;;7.43;;
562;SDS011;266;49.514;8.294;2023-06-22T03:48:25;6.97;;;6.30;;
562;SDS011;266;49.514;8.294;2023-06-22T03:50:53;7.33;;;6.63;;
562;SDS011;266;49.514;8.294;2023-06-22T03:53:21;8.97;;;7.80;;
562;SDS011;266;49.514;8.294;2023-06-22T03:55:49;8.07;;;7.37;;
562;SDS011;266;49.514;8.294;2023-06-22T03:58:19;8.20;;;7.40;;
562;SDS011;266;49.514;8.294;2023-06-22T04:00:49;11.93;;;9.40;;
562;SDS011;266;49.514;8.294;2023-06-22T04:03:19;12.33;;;8.80;;
562;SDS011;266;49.514;8.294;2023-06-22T04:05:47;9.30;;;8.47;;
562;SDS011;266;49.514;8.294;2023-06-22T04:08:15;9.70;;;8.87;;
562;SDS011;266;49.514;8.294;2023-06-22T04:10:44;8.87;;;7.57;;
562;SDS011;266;49.514;8.294;2023-06-22T04:13:12;9.17;;;8.30;;
562;SDS011;266;49.514;8.294;2023-06-22T04:15:40;10.10;;;9.10;;
562;SDS011;266;49.514;8.294;2023-06-22T04:18:09;8.47;;;7.67;;
562;SDS011;266;49.514;8.294;2023-06-22T04:20:37;9.70;;;8.70;;
562;SDS011;266;49.514;8.294;2023-06-22T04:23:05;9.60;;;8.10;;
562;SDS011;266;49.514;8.294;2023-06-22T04:25:33;8.20;;;7.40;;
562;SDS011;266;49.514;8.294;2023-06-22T04:28:02;8.77;;;7.93;;
562;SDS011;266;49.514;8.294;2023-06-22T04:30:32;10.80;;;9.00;;
562;SDS011;266;49.514;8.294;2023-06-22T04:33:00;13.03;;;8.30;;
562;SDS011;266;49.514;8.294;2023-06-22T04:35:30;9.47;;;7.80;;
562;SDS011;266;49.514;8.294;2023-06-22T04:37:58;9.10;;;8.20;;
562;SDS011;266;49.514;8.294;2023-06-22T04:40:26;9.27;;;8.37;;
562;SDS011;266;49.514;8.294;2023-06-22T04:42:54;10.60;;;9.50;;
562;SDS011;266;49.514;8.294;2023-06-22T04:45:28;9.33;;;8.53;;
562;SDS011;266;49.514;8.294;2023-06-22T04:47:56;9.53;;;8.63;;
562;SDS011;266;49.514;8.294;2023-06-22T04:50:24;8.50;;;7.70;;
562;SDS011;266;49.514;8.294;2023-06-22T04:52:54;8.67;;;7.80;;
562;SDS011;266;49.514;8.294;2023-06-22T04:55:23;9.70;;;8.70;;
562;SDS011;266;49.514;8.294;2023-06-22T04:57:51;10.20;;;9.20;;
562;SDS011;266;49.514;8.294;2023-06-22T05:00:19;9.20;;;8.40;;
562;SDS011;266;49.514;8.294;2023-06-22T05:02:49;9.07;;;8.20;;
562;SDS011;266;49.514;8.294;2023-06-22T05:05:21;9.33;;;8.43;;
562;SDS011;266;49.514;8.294;2023-06-22T05:07:50;10.10;;;9.20;;
562;SDS011;266;49.514;8.294;2023-06-22T05:10:22;10.10;;;7.00;;
562;SDS011;266;49.514;8.294;2023-06-22T05:12:51;10.03;;;9.03;;
562;SDS011;266;49.514;8.294;2023-06-22T05:15:18;8.93;;;8.07;;
562;SDS011;266;49.514;8.294;2023-06-22T05:17:48;9.00;;;8.10;;
562;SDS011;266;49.514;8.294;2023-06-22T05:20:16;9.90;;;8.60;;
562;SDS011;266;49.514;8.294;2023-06-22T05:22:44;9.50;;;8.67;;
562;SDS011;266;49.514;8.294;2023-06-22T05:25:12;11.47;;;10.23;;
562;SDS011;266;49.514;8.294;2023-06-22T05:27:42;9.97;;;8.93;;
562;SDS011;266;49.514;8.294;2023-06-22T05:30:10;9.97;;;9.00;;
562;SDS011;266;49.514;8.294;2023-06-22T05:32:56;9.20;;;8.50;;
562;SDS011;266;49.514;8.294;2023-06-22T05:35:24;8.13;;;7.33;;
562;SDS011;266;49.514;8.294;2023-06-22T05:37:52;10.40;;;9.40;;
562;SDS011;266;49.514;8.294;2023-06-22T05:40:20;9.83;;;8.73;;
562;SDS011;266;49.514;8.294;2023-06-22T05:42:49;9.63;;;8.70;;
562;SDS011;266;49.514;8.294;2023-06-22T05:45:17;9.33;;;8.43;;
562;SDS011;266;49.514;8.294;2023-06-22T05:47:45;9.77;;;8.70;;
562;SDS011;266;49.514;8.294;2023-06-22T05:50:13;10.17;;;9.17;;
562;SDS011;266;49.514;8.294;2023-06-22T05:52:41;9.23;;;8.33;;
562;SDS011;266;49.514;8.294;2023-06-22T05:55:09;10.20;;;9.07;;
562;SDS011;266;49.514;8.294;2023-06-22T05:57:37;10.27;;;9.30;;
562;SDS011;266;49.514;8.294;2023-06-22T06:00:07;8.77;;;7.97;;
562;SDS011;266;49.514;8.294;2023-06-22T06:02:38;9.30;;;7.77;;
562;SDS011;266;49.514;8.294;2023-06-22T06:05:10;8.83;;;8.03;;
562;SDS011;266;49.514;8.294;2023-06-22T06:07:40;8.97;;;8.13;;
562;SDS011;266;49.514;8.294;2023-06-22T06:10:08;8.67;;;7.87;;
562;SDS011;266;49.514;8.294;2023-06-22T06:12:37;9.53;;;8.53;;
562;SDS011;266;49.514;8.294;2023-06-22T06:15:05;9.10;;;8.20;;
562;SDS011;266;49.514;8.294;2023-06-22T06:17:44;9.53;;;8.63;;
562;SDS011;266;49.514;8.294;2023-06-22T06:20:13;8.87;;;8.07;;
562;SDS011;266;49.514;8.294;2023-06-22T06:22:41;10.63;;;8.67;;
562;SDS011;266;49.514;8.294;2023-06-22T06:25:10;9.80;;;8.80;;
562;SDS011;266;49.514;8.294;2023-06-22T06:27:44;8.67;;;7.87;;
562;SDS011;266;49.514;8.294;2023-06-22T06:30:17;9.40;;;8.60;;
562;SDS011;266;49.514;8.294;2023-06-22T06:32:56;7.43;;;6.73;;
562;SDS011;266;49.514;8.294;2023-06-22T06:35:25;8.83;;;7.93;;
562;SDS011;266;49.514;8.294;2023-06-22T06:37:53;7.40;;;6.80;;
562;SDS011;266;49.514;8.294;2023-06-22T06:40:21;7.13;;;6.47;;
562;SDS011;266;49.514;8.294;2023-06-22T06:42:49;10.33;;;8.57;;
562;SDS011;266;49.514;8.294;2023-06-22T06:45:20;7.40;;;6.80;;
562;SDS011;266;49.514;8.294;2023-06-22T06:47:50;7.37;;;6.67;;
562;SDS011;266;49.514;8.294;2023-06-22T06:50:19;7.90;;;7.30;;
562;SDS011;266;49.514;8.294;2023-06-22T06:52:47;6.87;;;6.27;;
562;SDS011;266;49.514;8.294;2023-06-22T06:55:16;7.30;;;6.60;;
562;SDS011;266;49.514;8.294;2023-06-22T06:57:46;5.97;;;5.33;;
562;SDS011;266;49.514;8.294;2023-06-22T07:00:16;6.20;;;5.67;;
562;SDS011;266;49.514;8.294;2023-06-22T07:02:46;7.13;;;6.13;;
562;SDS011;266;49.514;8.294;2023-06-22T07:05:15;6.90;;;6.30;;
562;SDS011;266;49.514;8.294;2023-06-22T07:07:43;6.03;;;5.50;;
562;SDS011;266;49.514;8.294;2023-06-22T07:10:11;6.23;;;5.73;;
562;SDS011;266;49.514;8.294;2023-06-22T07:12:39;6.70;;;6.00;;
562;SDS011;266;49.514;8.294;2023-06-22T07:15:07;6.17;;;5.57;;
562;SDS011;266;49.514;8.294;2023-06-22T07:17:37;8.63;;;6.43;;
562;SDS011;266;49.514;8.294;2023-06-22T07:20:09;6.17;;;5.57;;
562;SDS011;266;49.514;8.294;2023-06-22T07:22:39;5.63;;;5.10;;
562;SDS011;266;49.514;8.294;2023-06-22T07:25:08;8.83;;;6.73;;
562;SDS011;266;49.514;8.294;2023-06-22T07:27:43;6.33;;;5.73;;
562;SDS011;266;49.514;8.294;2023-06-22T07:30:12;6.67;;;6.10;;
562;SDS011;266;49.514;8.294;2023-06-22T07:32:40;6.40;;;5.90;;
562;SDS011;266;49.514;8.294;2023-06-22T07:35:10;7.20;;;6.50;;
562;SDS011;266;49.514;8.294;2023-06-22T07:37:38;6.87;;;6.17;;
562;SDS011;266;49.514;8.294;2023-06-22T07:40:06;6.53;;;5.93;;
562;SDS011;266;49.514;8.294;2023-06-22T07:42:35;7.77;;;6.53;;
562;SDS011;266;49.514;8.294;2023-06-22T07:45:04;6.20;;;5.60;;
562;SDS011;266;49.514;8.294;2023-06-22T07:47:34;6.90;;;5.40;;
562;SDS011;266;49.514;8.294;2023-06-22T07:50:03;7.70;;;5.83;;
562;SDS011;266;49.514;8.294;2023-06-22T07:52:33;6.43;;;5.93;;
562;SDS011;266;49.514;8.294;2023-06-22T07:55:01;7.20;;;6.50;;
562;SDS011;266;49.514;8.294;2023-06-22T07:57:29;6.83;;;6.23;;
562;SDS011;266;49.514;8.294;2023-06-22T08:00:00;6.83;;;6.23;;
562;SDS011;266;49.514;8.294;2023-06-22T08:02:37;6.20;;;5.53;;
562;SDS011;266;49.514;8.294;2023-06-22T08:05:06;6.97;;;6.27;;
562;SDS011;266;49.514;8.294;2023-06-22T08:07:49;7.47;;;6.80;;
562;SDS011;266;49.514;8.294;2023-06-22T08:10:18;7.20;;;6.50;;
562;SDS011;266;49.514;8.294;2023-06-22T08:12:47;6.43;;;5.77;;
562;SDS011;266;49.514;8.294;2023-06-22T08:15:14;6.07;;;5.57;;
562;SDS011;266;49.514;8.294;2023-06-22T08:17:43;7.03;;;6.10;;
562;SDS011;266;49.514;8.294;2023-06-22T08:20:11;6.63;;;5.83;;
562;SDS011;266;49.514;8.294;2023-06-22T08:22:39;6.80;;;6.20;;
562;SDS011;266;49.514;8.294;2023-06-22T08:25:10;6.73;;;6.13;;
562;SDS011;266;49.514;8.294;2023-06-22T08:27:39;6.87;;;6.17;;
562;SDS011;266;49.514;8.294;2023-06-22T08:30:07;7.23;;;5.97;;
562;SDS011;266;49.514;8.294;2023-06-22T08:32:37;6.77;;;6.13;;
562;SDS011;266;49.514;8.294;2023-06-22T08:35:06;6.07;;;5.47;;
562;SDS011;266;49.514;8.294;2023-06-22T08:37:35;7.30;;;6.60;;
562;SDS011;266;49.514;8.294;2023-06-22T08:40:06;10.67;;;6.60;;
562;SDS011;266;49.514;8.294;2023-06-22T08:42:37;6.17;;;5.63;;
562;SDS011;266;49.514;8.294;2023-06-22T08:45:05;6.40;;;5.80;;
562;SDS011;266;49.514;8.294;2023-06-22T08:47:34;6.47;;;5.87;;
562;SDS011;266;49.514;8.294;2023-06-22T08:50:02;7.07;;;6.47;;
562;SDS011;266;49.514;8.294;2023-06-22T08:52:30;6.50;;;5.90;;
562;SDS011;266;49.514;8.294;2023-06-22T08:54:58;7.00;;;6.13;;
562;SDS011;266;49.514;8.294;2023-06-22T08:57:26;6.80;;;6.20;;
562;SDS011;266;49.514;8.294;2023-06-22T08:59:56;5.97;;;5.47;;
562;SDS011;266;49.514;8.294;2023-06-22T09:02:25;6.60;;;6.00;;
562;SDS011;266;49.514;8.294;2023-06-22T09:04:57;7.33;;;6.63;;
562;SDS011;266;49.514;8.294;2023-06-22T09:07:26;7.80;;;5.27;;
562;SDS011;266;49.514;8.294;2023-06-22T09:09:56;6.37;;;5.77;;
562;SDS011;266;49.514;8.294;2023-06-22T09:12:28;6.50;;;6.00;;
562;SDS011;266;49.514;8.294;2023-06-22T09:14:58;7.53;;;6.00;;
562;SDS011;266;49.514;8.294;2023-06-22T09:17:27;6.57;;;5.97;;
562;SDS011;266;49.514;8.294;2023-06-22T09:19:55;6.70;;;6.10;;
562;SDS011;266;49.514;8.294;2023-06-22T09:22:23;6.13;;;5.63;;
562;SDS011;266;49.514;8.294;2023-06-22T09:24:55;7.00;;;6.27;;
562;SDS011;266;49.514;8.294;2023-06-22T09:27:23;6.30;;;5.73;;
562;SDS011;266;49.514;8.294;2023-06-22T09:29:51;6.63;;;6.00;;
562;SDS011;266;49.514;8.294;2023-06-22T09:32:20;7.00;;;6.40;;
562;SDS011;266;49.514;8.294;2023-06-22T09:34:48;5.27;;;4.77;;
562;SDS011;266;49.514;8.294;2023-06-22T09:37:16;5.80;;;5.30;;
562;SDS011;266;49.514;8.294;2023-06-22T09:39:44;5.83;;;5.20;;
562;SDS011;266;49.514;8.294;2023-06-22T09:42:12;5.17;;;4.73;;
562;SDS011;266;49.514;8.294;2023-06-22T09:44:40;5.70;;;5.13;;
562;SDS011;266;49.514;8.294;2023-06-22T09:47:08;4.70;;;4.20;;
562;SDS011;266;49.514;8.294;2023-06-22T09:49:37;3.97;;;3.60;;
562;SDS011;266;49.514;8.294;2023-06-22T09:52:13;4.60;;;4.20;;
562;SDS011;266;49.514;8.294;2023-06-22T09:54:41;5.53;;;3.93;;
562;SDS011;266;49.514;8.294;2023-06-22T09:57:09;6.90;;;5.50;;
562;SDS011;266;49.514;8.294;2023-06-22T09:59:37;5.83;;;4.47;;
562;SDS011;266;49.514;8.294;2023-06-22T10:02:06;4.63;;;3.90;;
562;SDS011;266;49.514;8.294;2023-06-22T10:04:34;5.13;;;4.63;;
562;SDS011;266;49.514;8.294;2023-06-22T10:07:05;7.50;;;4.97;;
562;SDS011;266;49.514;8.294;2023-06-22T10:09:33;4.87;;;4.37;;
562;SDS011;266;49.514;8.294;2023-06-22T10:12:01;13.07;;;4.90;;
562;SDS011;266;49.514;8.294;2023-06-22T10:14:29;4.80;;;4.30;;
562;SDS011;266;49.514;8.294;2023-06-22T10:16:57;4.00;;;3.70;;
562;SDS011;266;49.514;8.294;2023-06-22T10:19:25;4.17;;;3.77;;
562;SDS011;266;49.514;8.294;2023-06-22T10:21:53;5.47;;;4.97;;
562;SDS011;266;49.514;8.294;2023-06-22T10:24:23;4.60;;;4.20;;
562;SDS011;266;49.514;8.294;2023-06-22T10:26:50;5.00;;;4.50;;
562;SDS011;266;49.514;8.294;2023-06-22T10:29:19;5.23;;;4.70;;
562;SDS011;266;49.514;8.294;2023-06-22T10:31:48;5.10;;;4.70;;
562;SDS011;266;49.514;8.294;2023-06-22T10:34:16;5.10;;;4.00;;
562;SDS011;266;49.514;8.294;2023-06-22T10:36:43;4.70;;;4.30;;
562;SDS011;266;49.514;8.294;2023-06-22T10:39:14;4.60;;;4.20;;
562;SDS011;266;49.514;8.294;2023-06-22T10:41:43;4.77;;;4.23;;
562;SDS011;266;49.514;8.294;2023-06-22T10:44:12;4.90;;;4.30;;
562;SDS011;266;49.514;8.294;2023-06-22T10:46:40;4.90;;;4.50;;
562;SDS011;266;49.514;8.294;2023-06-22T10:49:08;5.50;;;4.90;;
562;SDS011;266;49.514;8.294;2023-06-22T10:51:36;7.13;;;4.27;;
562;SDS011;266;49.514;8.294;2023-06-22T10:54:03;4.87;;;4.37;;
562;SDS011;266;49.514;8.294;2023-06-22T10:56:31;4.63;;;4.03;;
562;SDS011;266;49.514;8.294;2023-06-22T10:59:01;5.23;;;4.83;;
562;SDS011;266;49.514;8.294;2023-06-22T11:01:29;4.30;;;3.80;;
562;SDS011;266;49.514;8.294;2023-06-22T11:04:03;4.30;;;4.00;;
562;SDS011;266;49.514;8.294;2023-06-22T11:06:31;5.33;;;4.50;;
562;SDS011;266;49.514;8.294;2023-06-22T11:08:59;5.20;;;4.80;;
562;SDS011;266;49.514;8.294;2023-06-22T11:11:32;5.30;;;4.90;;
562;SDS011;266;49.514;8.294;2023-06-22T11:14:01;5.20;;;4.30;;
562;SDS011;266;49.514;8.294;2023-06-22T11:16:29;8.20;;;4.93;;
562;SDS011;266;49.514;8.294;2023-06-22T11:18:57;7.00;;;5.40;;
562;SDS011;266;49.514;8.294;2023-06-22T11:21:25;6.33;;;4.50;;
562;SDS011;266;49.514;8.294;2023-06-22T11:23:53;6.20;;;5.60;;
562;SDS011;266;49.514;8.294;2023-06-22T11:26:27;5.27;;;4.77;;
562;SDS011;266;49.514;8.294;2023-06-22T11:29:05;5.00;;;4.60;;
562;SDS011;266;49.514;8.294;2023-06-22T11:31:39;5.30;;;4.80;;
562;SDS011;266;49.514;8.294;2023-06-22T11:34:09;5.00;;;4.23;;
562;SDS011;266;49.514;8.294;2023-06-22T11:36:37;5.50;;;4.90;;
562;SDS011;266;49.514;8.294;2023-06-22T11:39:05;7.80;;;4.83;;
562;SDS011;266;49.514;8.294;2023-06-22T11:41:32;5.20;;;4.40;;
562;SDS011;266;49.514;8.294;2023-06-22T11:44:00;5.47;;;4.97;;
562;SDS011;266;49.514;8.294;2023-06-22T11:46:32;5.13;;;4.67;;
562;SDS011;266;49.514;8.294;2023-06-22T11:49:03;5.80;;;4.60;;
562;SDS011;266;49.514;8.294;2023-06-22T11:51:31;4.50;;;4.10;;
562;SDS011;266;49.514;8.294;2023-06-22T11:53:59;5.57;;;5.07;;
562;SDS011;266;49.514;8.294;2023-06-22T11:56:27;6.67;;;5.57;;
562;SDS011;266;49.514;8.294;2023-06-22T11:58:54;9.50;;;4.90;;
562;SDS011;266;49.514;8.294;2023-06-22T12:01:22;4.63;;;4.27;;
562;SDS011;266;49.514;8.294;2023-06-22T12:03:52;5.27;;;4.77;;
562;SDS011;266;49.514;8.294;2023-06-22T12:06:20;5.47;;;4.43;;
562;SDS011;266;49.514;8.294;2023-06-22T12:08:48;5.00;;;4.53;;
562;SDS011;266;49.514;8.294;2023-06-22T12:11:17;5.17;;;4.67;;
562;SDS011;266;49.514;8.294;2023-06-22T12:13:45;6.10;;;5.60;;
562;SDS011;266;49.514;8.294;2023-06-22T12:16:13;4.80;;;4.37;;
562;SDS011;266;49.514;8.294;2023-06-22T12:18:41;6.20;;;4.93;;
562;SDS011;266;49.514;8.294;2023-06-22T12:21:10;4.93;;;4.53;;
562;SDS011;266;49.514;8.294;2023-06-22T12:23:38;4.83;;;4.43;;
562;SDS011;266;49.514;8.294;2023-06-22T12:26:06;5.40;;;5.00;;
562;SDS011;266;49.514;8.294;2023-06-22T12:28:34;6.80;;;4.60;;
562;SDS011;266;49.514;8.294;2023-06-22T12:31:02;4.93;;;4.43;;
562;SDS011;266;49.514;8.294;2023-06-22T12:33:30;6.43;;;4.80;;
562;SDS011;266;49.514;8.294;2023-06-22T12:35:58;4.93;;;4.47;;
562;SDS011;266;49.514;8.294;2023-06-22T12:38:27;7.00;;;5.17;;
562;SDS011;266;49.514;8.294;2023-06-22T12:40:55;5.10;;;4.10;;
562;SDS011;266;49.514;8.294;2023-06-22T12:43:23;5.37;;;4.87;;
562;SDS011;266;49.514;8.294;2023-06-22T12:45:51;5.50;;;5.00;;
562;SDS011;266;49.514;8.294;2023-06-22T12:48:19;9.73;;;4.83;;
562;SDS011;266;49.514;8.294;2023-06-22T12:50:48;7.50;;;4.80;;
562;SDS011;266;49.514;8.294;2023-06-22T12:53:17;4.43;;;4.03;;
562;SDS011;266;49.514;8.294;2023-06-22T12:55:47;6.57;;;4.80;;
562;SDS011;266;49.514;8.294;2023-06-22T12:58:17;5.40;;;4.90;;
562;SDS011;266;49.514;8.294;2023-06-22T13:00:45;7.20;;;4.93;;
562;SDS011;266;49.514;8.294;2023-06-22T13:03:13;4.97;;;4.57;;
562;SDS011;266;49.514;8.294;2023-06-22T13:05:41;5.50;;;4.83;;
562;SDS011;266;49.514;8.294;2023-06-22T13:08:09;5.60;;;5.00;;
562;SDS011;266;49.514;8.294;2023-06-22T13:10:38;5.90;;;5.40;;
562;SDS011;266;49.514;8.294;2023-06-22T13:13:07;7.67;;;4.70;;
562;SDS011;266;49.514;8.294;2023-06-22T13:15:35;5.03;;;4.40;;
562;SDS011;266;49.514;8.294;2023-06-22T13:18:03;10.53;;;4.60;;
562;SDS011;266;49.514;8.294;2023-06-22T13:20:31;5.50;;;4.57;;
562;SDS011;266;49.514;8.294;2023-06-22T13:22:59;5.73;;;4.73;;
562;SDS011;266;49.514;8.294;2023-06-22T13:25:27;5.80;;;4.73;;
562;SDS011;266;49.514;8.294;2023-06-22T13:27:55;6.17;;;5.57;;
562;SDS011;266;49.514;8.294;2023-06-22T13:30:25;6.83;;;4.23;;
562;SDS011;266;49.514;8.294;2023-06-22T13:32:52;4.97;;;4.57;;
562;SDS011;266;49.514;8.294;2023-06-22T13:35:21;6.70;;;4.90;;
562;SDS011;266;49.514;8.294;2023-06-22T13:38:06;5.63;;;4.60;;
562;SDS011;266;49.514;8.294;2023-06-22T13:40:34;6.33;;;5.27;;
562;SDS011;266;49.514;8.294;2023-06-22T13:43:05;4.30;;;3.90;;
562;SDS011;266;49.514;8.294;2023-06-22T13:45:51;5.50;;;5.00;;
562;SDS011;266;49.514;8.294;2023-06-22T13:48:20;9.03;;;4.60;;
562;SDS011;266;49.514;8.294;2023-06-22T13:51:06;5.97;;;4.20;;
562;SDS011;266;49.514;8.294;2023-06-22T13:53:34;5.73;;;5.23;;
562;SDS011;266;49.514;8.294;2023-06-22T13:56:03;6.83;;;5.30;;
562;SDS011;266;49.514;8.294;2023-06-22T13:58:31;7.03;;;5.00;;
562;SDS011;266;49.514;8.294;2023-06-22T14:01:00;4.60;;;4.20;;
562;SDS011;266;49.514;8.294;2023-06-22T14:03:28;5.60;;;4.77;;
562;SDS011;266;49.514;8.294;2023-06-22T14:05:59;6.03;;;4.00;;
562;SDS011;266;49.514;8.294;2023-06-22T14:08:27;6.33;;;5.20;;
562;SDS011;266;49.514;8.294;2023-06-22T14:10:57;4.00;;;3.67;;
562;SDS011;266;49.514;8.294;2023-06-22T14:13:26;6.87;;;4.60;;
562;SDS011;266;49.514;8.294;2023-06-22T14:15:54;13.43;;;6.90;;
562;SDS011;266;49.514;8.294;2023-06-22T14:18:23;5.97;;;5.03;;
562;SDS011;266;49.514;8.294;2023-06-22T14:20:51;5.30;;;4.80;;
562;SDS011;266;49.514;8.294;2023-06-22T14:23:19;6.33;;;4.70;;
562;SDS011;266;49.514;8.294;2023-06-22T14:25:47;4.60;;;4.10;;
562;SDS011;266;49.514;8.294;2023-06-22T14:28:15;5.60;;;5.10;;
562;SDS011;266;49.514;8.294;2023-06-22T14:30:43;6.10;;;4.70;;
562;SDS011;266;49.514;8.294;2023-06-22T14:33:12;11.07;;;5.23;;
562;SDS011;266;49.514;8.294;2023-06-22T14:35:41;7.87;;;5.33;;
562;SDS011;266;49.514;8.294;2023-06-22T14:38:10;5.63;;;4.70;;
562;SDS011;266;49.514;8.294;2023-06-22T14:40:37;4.90;;;4.40;;
562;SDS011;266;49.514;8.294;2023-06-22T14:43:25;5.53;;;5.00;;
562;SDS011;266;49.514;8.294;2023-06-22T14:45:54;8.30;;;5.07;;
562;SDS011;266;49.514;8.294;2023-06-22T14:48:21;7.13;;;4.67;;
562;SDS011;266;49.514;8.294;2023-06-22T14:50:51;5.97;;;5.13;;
562;SDS011;266;49.514;8.294;2023-06-22T14:53:20;5.90;;;4.37;;
562;SDS011;266;49.514;8.294;2023-06-22T14:55:59;6.93;;;4.53;;
562;SDS011;266;49.514;8.294;2023-06-22T14:58:28;5.80;;;5.20;;
562;SDS011;266;49.514;8.294;2023-06-22T15:00:59;5.33;;;4.43;;
562;SDS011;266;49.514;8.294;2023-06-22T15:03:27;7.63;;;5.07;;
562;SDS011;266;49.514;8.294;2023-06-22T15:05:59;4.83;;;4.43;;
562;SDS011;266;49.514;8.294;2023-06-22T15:08:28;7.43;;;4.47;;
562;SDS011;266;49.514;8.294;2023-06-22T15:10:58;4.27;;;3.87;;
562;SDS011;266;49.514;8.294;2023-06-22T15:13:27;7.97;;;4.20;;
562;SDS011;266;49.514;8.294;2023-06-22T15:15:58;8.27;;;5.30;;
562;SDS011;266;49.514;8.294;2023-06-22T15:18:29;6.93;;;6.27;;
562;SDS011;266;49.514;8.294;2023-06-22T15:20:57;4.60;;;4.30;;
562;SDS011;266;49.514;8.294;2023-06-22T15:23:27;5.93;;;5.33;;
562;SDS011;266;49.514;8.294;2023-06-22T15:25:56;7.27;;;4.77;;
562;SDS011;266;49.514;8.294;2023-06-22T15:28:25;4.73;;;4.33;;
562;SDS011;266;49.514;8.294;2023-06-22T15:30:53;6.67;;;4.70;;
562;SDS011;266;49.514;8.294;2023-06-22T15:33:22;6.17;;;5.30;;
562;SDS011;266;49.514;8.294;2023-06-22T15:35:51;6.97;;;5.10;;
562;SDS011;266;49.514;8.294;2023-06-22T15:38:20;10.53;;;5.67;;
562;SDS011;266;49.514;8.294;2023-06-22T15:40:50;8.40;;;5.13;;
562;SDS011;266;49.514;8.294;2023-06-22T15:43:20;5.60;;;5.10;;
562;SDS011;266;49.514;8.294;2023-06-22T15:45:56;5.13;;;4.63;;
562;SDS011;266;49.514;8.294;2023-06-22T15:48:27;6.70;;;6.07;;
562;SDS011;266;49.514;8.294;2023-06-22T15:50:55;6.30;;;5.57;;
562;SDS011;266;49.514;8.294;2023-06-22T15:53:23;7.20;;;5.17;;
562;SDS011;266;49.514;8.294;2023-06-22T15:55:52;6.67;;;6.07;;
562;SDS011;266;49.514;8.294;2023-06-22T15:58:20;7.47;;;5.70;;